Time;durP1;ratioP1;P1;durP2;ratioP2;P2;SDS_P1;SDS_P2;PMS_P1;PMS_P2;Temp;Humidity;BMP_temperature;BMP_pressure;BME280_temperature;BME280_humidity;BME280_pressure;Samples;Min_cycle;Max_cycle;Signal;HPM_P1;HPM_P2
2023/10/20 00:01:01;;;;;;;4.40;1.50;;;;;;;0.86;100.00;101726.81;4897287;29;20048;-66
2023/10/20 00:03:27;;;;;;;7.10;1.73;;;;;;;0.95;100.00;101740.41;4897225;29;20037;-66
2023/10/20 00:05:53;;;;;;;4.87;2.30;;;;;;;0.97;100.00;101736.78;4897595;29;20070;-67
2023/10/20 00:08:19;;;;;;;2.00;1.50;;;;;;;0.93;100.00;101741.34;4898254;29;20068;-65
2023/10/20 00:10:45;;;;;;;2.57;1.60;;;;;;;0.89;100.00;101729.31;4903427;29;20044;-67
2023/10/20 00:13:11;;;;;;;6.87;1.60;;;;;;;0.75;100.00;101718.66;4904580;29;20076;-67
2023/10/20 00:15:37;;;;;;;7.17;2.30;;;;;;;0.76;100.00;101717.72;4900698;29;20192;-67
2023/10/20 00:18:03;;;;;;;5.77;1.80;;;;;;;0.73;100.00;101723.13;4896722;29;20383;-66
2023/10/20 00:20:29;;;;;;;6.40;1.90;;;;;;;0.86;100.00;101747.78;4895443;29;20512;-68
2023/10/20 00:22:55;;;;;;;4.27;1.47;;;;;;;0.63;100.00;101708.78;4901220;29;20273;-66
2023/10/20 00:25:21;;;;;;;5.23;1.50;;;;;;;0.77;100.00;101727.28;4900293;29;20098;-67
2023/10/20 00:27:47;;;;;;;4.40;1.60;;;;;;;0.91;100.00;101735.34;4897441;29;20336;-66
2023/10/20 00:30:14;;;;;;;5.00;1.60;;;;;;;1.11;100.00;101746.56;4896509;29;20281;-65
2023/10/20 00:32:40;;;;;;;7.23;2.57;;;;;;;0.97;100.00;101707.94;4896681;29;20745;-66
2023/10/20 00:35:09;;;;;;;5.67;1.83;;;;;;;1.19;100.00;101747.91;4896549;29;20319;-66
2023/10/20 00:37:35;;;;;;;4.65;1.80;;;;;;;0.91;100.00;101703.84;4895231;29;20469;-66
2023/10/20 00:40:07;;;;;;;7.37;1.90;;;;;;;1.08;100.00;101731.00;4896689;29;20127;-66
2023/10/20 00:42:34;;;;;;;4.20;1.37;;;;;;;1.01;100.00;101708.63;4896440;29;20306;-66
2023/10/20 00:44:59;;;;;;;4.37;1.67;;;;;;;1.21;100.00;101737.31;4896506;29;20836;-65
2023/10/20 00:47:26;;;;;;;4.07;1.40;;;;;;;1.09;100.00;101709.06;4895180;29;20265;-68
2023/10/20 00:49:54;;;;;;;4.80;1.47;;;;;;;1.10;100.00;101711.63;4894967;29;20032;-67
2023/10/20 00:52:22;;;;;;;4.25;1.75;;;;;;;1.23;100.00;101735.47;4896632;29;20285;-65
2023/10/20 00:54:50;;;;;;;9.23;2.20;;;;;;;1.21;100.00;101743.41;4899336;29;20048;-67
2023/10/20 00:57:17;;;;;;;5.27;2.10;;;;;;;1.22;100.00;101741.66;4898616;29;20763;-67
2023/10/20 00:59:43;;;;;;;16.80;2.87;;;;;;;1.13;100.00;101739.47;4899876;29;20269;-65
2023/10/20 01:02:09;;;;;;;7.00;1.57;;;;;;;0.95;100.00;101725.53;4899864;29;20368;-68
2023/10/20 01:04:36;;;;;;;5.63;1.80;;;;;;;0.99;100.00;101740.19;4898203;29;20753;-68
2023/10/20 01:07:01;;;;;;;2.37;1.40;;;;;;;0.75;100.00;101713.41;4899804;29;20269;-65
2023/10/20 01:09:27;;;;;;;4.43;2.20;;;;;;;1.00;100.00;101757.63;4898573;29;20275;-66
2023/10/20 01:11:53;;;;;;;4.33;2.57;;;;;;;0.95;100.00;101737.78;4904142;29;20044;-66
2023/10/20 01:14:19;;;;;;;10.30;2.63;;;;;;;1.14;100.00;101757.75;4907983;29;20048;-66
2023/10/20 01:16:46;;;;;;;5.83;1.80;;;;;;;1.18;100.00;101750.59;4905446;29;20047;-67
2023/10/20 01:19:11;;;;;;;6.23;1.73;;;;;;;1.14;100.00;101736.75;4905388;29;20344;-66
2023/10/20 01:21:37;;;;;;;2.57;1.70;;;;;;;1.06;100.00;101743.34;4898272;29;20265;-67
2023/10/20 01:24:04;;;;;;;3.97;1.53;;;;;;;1.16;100.00;101744.59;4899574;29;20131;-66
2023/10/20 01:26:31;;;;;;;3.83;1.53;;;;;;;1.00;100.00;101723.53;4899333;29;20317;-66
2023/10/20 01:28:58;;;;;;;3.47;1.97;;;;;;;1.12;100.00;101743.88;4899316;29;20277;-64
2023/10/20 01:31:23;;;;;;;5.90;1.70;;;;;;;1.21;100.00;101760.94;4899092;29;20340;-69
2023/10/20 01:33:49;;;;;;;4.10;1.63;;;;;;;1.27;100.00;101767.66;4899611;29;20741;-70
2023/10/20 01:36:15;;;;;;;4.27;1.93;;;;;;;1.10;100.00;101734.38;4898662;29;20045;-66
2023/10/20 01:38:40;;;;;;;4.53;1.40;;;;;;;1.39;100.00;101773.09;4898039;29;20496;-65
2023/10/20 01:41:07;;;;;;;4.50;1.63;;;;;;;1.40;100.00;101772.16;4899121;29;20080;-67
2023/10/20 01:43:33;;;;;;;2.00;1.23;;;;;;;1.43;100.00;101772.00;4899419;29;20041;-66
2023/10/20 01:46:01;;;;;;;4.33;1.30;;;;;;;1.23;100.00;101738.09;4898988;29;20396;-66
2023/10/20 01:48:27;;;;;;;5.18;1.30;;;;;;;1.35;100.00;101763.69;4899378;29;20305;-65
2023/10/20 01:50:55;;;;;;;6.00;1.60;;;;;;;1.33;100.00;101773.41;4898509;29;20098;-65
2023/10/20 01:53:20;;;;;;;5.70;1.80;;;;;;;1.23;100.00;101761.72;4898854;29;20049;-65
2023/10/20 01:55:49;;;;;;;4.60;1.63;;;;;;;1.09;100.00;101732.69;4898692;29;20408;-69
2023/10/20 01:58:19;;;;;;;4.75;2.03;;;;;;;1.10;100.00;101742.25;4899150;29;20509;-69
2023/10/20 02:00:48;;;;;;;5.97;2.13;;;;;;;1.14;100.00;101754.28;4897984;29;20068;-67
2023/10/20 02:03:14;;;;;;;3.03;1.40;;;;;;;1.12;100.00;101758.75;4897606;29;20641;-67
2023/10/20 02:05:40;;;;;;;3.50;1.50;;;;;;;1.06;100.00;101757.31;4896915;29;20334;-67
2023/10/20 02:08:08;;;;;;;3.33;1.40;;;;;;;1.00;100.00;101759.41;4898713;29;20072;-67
2023/10/20 02:10:35;;;;;;;3.90;1.55;;;;;;;1.01;100.00;101764.56;4897367;29;20409;-69
2023/10/20 02:13:01;;;;;;;3.77;1.63;;;;;;;0.95;100.00;101767.50;4898394;29;20140;-65
2023/10/20 02:15:27;;;;;;;6.20;1.87;;;;;;;0.92;100.00;101773.75;4899396;29;20676;-66
2023/10/20 02:17:53;;;;;;;4.47;2.43;;;;;;;0.83;100.00;101757.59;4899663;29;20380;-65
2023/10/20 02:20:22;;;;;;;10.77;5.70;;;;;;;1.21;100.00;101785.41;4899222;29;20052;-68
2023/10/20 02:22:55;;;;;;;15.20;7.20;;;;;;;1.15;100.00;101753.34;4898617;29;20056;-65
2023/10/20 02:25:22;;;;;;;16.00;5.63;;;;;;;1.27;100.00;101779.00;4897307;29;20301;-64
2023/10/20 02:27:47;;;;;;;9.57;4.43;;;;;;;1.20;100.00;101761.88;4898798;29;20276;-65
2023/10/20 02:30:15;;;;;;;9.77;4.13;;;;;;;1.15;100.00;101756.81;4898148;29;20273;-67
2023/10/20 02:32:41;;;;;;;11.87;4.63;;;;;;;1.14;100.00;101751.66;4898611;29;20088;-69
2023/10/20 02:35:11;;;;;;;4.80;2.40;;;;;;;1.05;100.00;101745.13;4896983;29;20307;-67
2023/10/20 02:37:36;;;;;;;5.90;2.60;;;;;;;0.88;100.00;101724.16;4898296;29;20299;-69
2023/10/20 02:40:06;;;;;;;6.37;2.40;;;;;;;0.83;100.00;101732.22;4898153;29;20269;-65
2023/10/20 02:42:32;;;;;;;3.87;2.43;;;;;;;0.82;100.00;101754.13;4897658;29;20040;-65
2023/10/20 02:44:58;;;;;;;5.17;1.80;;;;;;;0.78;100.00;101765.69;4899138;29;20304;-65
2023/10/20 02:47:24;;;;;;;5.80;2.20;;;;;;;0.79;100.00;101771.78;4898447;29;20269;-66
2023/10/20 02:49:55;;;;;;;10.23;2.10;;;;;;;0.27;100.00;101707.00;4900308;29;20321;-65
2023/10/20 02:52:22;;;;;;;4.77;2.87;;;;;;;0.55;100.00;101755.47;4921687;29;20052;-65
2023/10/20 02:54:53;;;;;;;8.00;3.13;;;;;;;-0.33;100.00;101600.78;4921366;29;20356;-67
2023/10/20 02:57:21;;;;;;;6.03;2.20;;;;;;;0.72;100.00;101768.63;4920978;29;20257;-66
2023/10/20 02:59:48;;;;;;;6.20;2.58;;;;;;;0.78;100.00;101785.81;4918960;29;20281;-64
2023/10/20 03:02:15;;;;;;;4.33;1.70;;;;;;;0.77;100.00;101787.59;4899132;29;20056;-66
2023/10/20 03:04:40;;;;;;;8.07;2.17;;;;;;;0.77;100.00;101790.22;4898016;29;20264;-65
2023/10/20 03:07:07;;;;;;;5.33;2.27;;;;;;;0.75;100.00;101789.44;4896308;29;20276;-65
2023/10/20 03:09:32;;;;;;;5.90;2.13;;;;;;;0.76;100.00;101787.69;4896116;29;20131;-65
2023/10/20 03:11:58;;;;;;;6.63;2.83;;;;;;;0.85;100.00;101782.81;4897807;29;20032;-65
2023/10/20 03:14:23;;;;;;;6.03;2.00;;;;;;;0.66;100.00;101745.34;4896377;29;20041;-64
2023/10/20 03:16:49;;;;;;;13.10;3.00;;;;;;;0.83;100.00;101763.69;4896839;29;20072;-64
2023/10/20 03:19:15;;;;;;;5.87;2.00;;;;;;;0.99;100.00;101769.03;4897503;29;20381;-67
2023/10/20 03:21:40;;;;;;;4.97;2.00;;;;;;;0.75;100.00;101717.81;4880497;29;20423;-67
2023/10/20 03:24:06;;;;;;;5.83;3.00;;;;;;;1.00;100.00;101744.50;4896684;29;20036;-65
2023/10/20 03:26:32;;;;;;;6.33;2.73;;;;;;;1.28;100.00;101785.09;4897339;29;20076;-66
2023/10/20 03:28:58;;;;;;;2.30;1.73;;;;;;;1.21;100.00;101763.56;4897333;29;20079;-64
2023/10/20 03:31:23;;;;;;;6.03;1.90;;;;;;;1.27;100.00;101779.00;4897474;29;20061;-64
2023/10/20 03:33:49;;;;;;;5.10;1.87;;;;;;;1.05;100.00;101752.13;4896215;29;20312;-65
2023/10/20 03:36:15;;;;;;;5.27;2.13;;;;;;;1.27;100.00;101793.88;4897637;29;20044;-66
2023/10/20 03:38:40;;;;;;;3.97;2.10;;;;;;;1.28;100.00;101779.84;4898889;29;20036;-64
2023/10/20 03:41:07;;;;;;;6.47;2.00;;;;;;;0.84;100.00;101712.94;4897245;29;20076;-63
2023/10/20 03:43:34;;;;;;;6.63;2.00;;;;;;;1.05;100.00;101762.63;4897787;29;20049;-65
2023/10/20 03:46:02;;;;;;;6.17;1.93;;;;;;;1.01;100.00;101768.97;4897670;29;20316;-66
2023/10/20 03:48:29;;;;;;;5.57;2.27;;;;;;;0.93;100.00;101791.19;4897132;29;20292;-65
2023/10/20 03:50:56;;;;;;;6.20;3.00;;;;;;;0.84;100.00;101783.75;4896830;29;20352;-64
2023/10/20 03:53:22;;;;;;;11.73;2.20;;;;;;;0.53;100.00;101736.34;4896880;29;20376;-64
2023/10/20 03:55:58;;;;;;;5.93;2.43;;;;;;;0.79;100.00;101784.91;4897085;29;20269;-65
2023/10/20 03:58:26;;;;;;;9.80;2.57;;;;;;;0.67;100.00;101768.00;4895994;29;20292;-65
2023/10/20 04:00:54;;;;;;;4.90;1.97;;;;;;;0.75;100.00;101780.72;4896962;29;20329;-65
2023/10/20 04:03:19;;;;;;;7.50;2.00;;;;;;;0.83;100.00;101778.56;4896983;29;20689;-65
2023/10/20 04:05:45;;;;;;;8.27;2.20;;;;;;;0.91;100.00;101797.44;4897090;29;20366;-67
2023/10/20 04:08:10;;;;;;;7.10;2.17;;;;;;;0.84;100.00;101780.28;4896691;29;20044;-65
2023/10/20 04:10:37;;;;;;;6.50;3.13;;;;;;;0.93;100.00;101796.44;4896778;29;20072;-67
2023/10/20 04:13:04;;;;;;;9.27;2.87;;;;;;;0.87;100.00;101815.09;4895786;29;20079;-67
2023/10/20 04:15:36;;;;;;;3.20;2.00;;;;;;;0.78;100.00;101802.41;4897112;29;20269;-66
2023/10/20 04:18:02;;;;;;;6.87;2.67;;;;;;;0.61;100.00;101784.03;4895713;29;20372;-66
2023/10/20 04:20:28;;;;;;;8.33;2.90;;;;;;;0.69;100.00;101808.09;4898268;29;20699;-67
2023/10/20 04:22:53;;;;;;;6.37;3.40;;;;;;;0.57;100.00;101792.94;4895875;29;20430;-65
2023/10/20 04:25:21;;;;;;;11.80;2.77;;;;;;;0.51;100.00;101788.00;4897683;29;20044;-66
2023/10/20 04:28:01;;;;;;;3.22;2.50;;;;;;;-0.39;100.00;101659.50;4898052;29;20044;-70
2023/10/20 05:02:57;;;;;;;4.75;2.15;;;;;;;1.33;100.00;101825.91;4899897;29;20283;-66
2023/10/20 05:08:08;;;;;;;17.63;3.80;;;;;;;1.30;100.00;101831.31;4905055;29;20280;-66
2023/10/20 05:10:34;;;;;;;6.77;2.57;;;;;;;1.41;100.00;101852.63;4918432;29;20375;-65
2023/10/20 05:13:00;;;;;;;12.17;2.77;;;;;;;1.47;100.00;101854.97;4918790;29;20360;-66
2023/10/20 05:15:26;;;;;;;5.80;1.83;;;;;;;1.50;100.00;101854.78;4919017;29;20432;-64
2023/10/20 05:17:52;;;;;;;7.30;2.40;;;;;;;1.30;100.00;101826.06;4917543;29;20328;-66
2023/10/20 05:20:20;;;;;;;4.47;2.40;;;;;;;1.34;100.00;101835.47;4918368;29;20127;-68
2023/10/20 05:22:47;;;;;;;8.25;2.20;;;;;;;1.42;100.00;101856.94;4918412;29;20043;-67
2023/10/20 05:25:17;;;;;;;6.40;1.80;;;;;;;1.34;100.00;101838.09;4918099;29;20155;-69
2023/10/20 05:27:44;;;;;;;6.07;2.43;;;;;;;1.48;100.00;101861.91;4918206;29;20787;-67
2023/10/20 05:30:10;;;;;;;7.37;2.47;;;;;;;1.36;100.00;101852.00;4918281;29;20308;-69
2023/10/20 05:32:37;;;;;;;5.83;2.97;;;;;;;1.35;100.00;101863.44;4917642;29;20044;-66
2023/10/20 05:35:04;;;;;;;3.90;2.50;;;;;;;1.38;100.00;101860.66;4918194;29;20044;-68
2023/10/20 05:37:31;;;;;;;9.43;4.53;;;;;;;1.16;100.00;101818.06;4915363;29;20276;-66
2023/10/20 05:39:57;;;;;;;4.07;2.17;;;;;;;1.41;100.00;101860.50;4915963;29;20039;-66
2023/10/20 05:42:23;;;;;;;9.77;2.93;;;;;;;1.22;100.00;101839.59;4918022;29;20036;-67
2023/10/20 05:45:02;;;;;;;7.70;3.67;;;;;;;1.13;100.00;101844.41;4917928;29;20071;-65
2023/10/20 05:47:32;;;;;;;5.37;2.20;;;;;;;1.25;100.00;101870.06;4906336;29;20789;-65
2023/10/20 05:50:00;;;;;;;7.07;2.63;;;;;;;1.21;100.00;101863.28;4898574;29;20269;-68
2023/10/20 05:52:27;;;;;;;9.95;3.25;;;;;;;1.13;100.00;101845.25;4899051;29;20509;-64
2023/10/20 05:54:56;;;;;;;6.30;3.40;;;;;;;1.13;100.00;101845.25;4899410;29;20435;-65
2023/10/20 05:57:25;;;;;;;18.00;3.10;;;;;;;1.18;100.00;101850.31;4898971;29;20372;-71
2023/10/20 05:59:50;;;;;;;6.50;2.03;;;;;;;1.23;100.00;101858.81;4898705;29;20040;-64
2023/10/20 06:02:16;;;;;;;14.20;3.57;;;;;;;1.17;100.00;101832.88;4898791;29;20328;-64
2023/10/20 06:04:42;;;;;;;10.77;3.20;;;;;;;1.44;100.00;101868.22;4898658;29;20040;-68
2023/10/20 06:07:07;;;;;;;12.07;3.37;;;;;;;1.35;100.00;101842.44;4898685;29;20039;-66
2023/10/20 06:09:33;;;;;;;5.13;2.10;;;;;;;1.22;100.00;101813.34;4898510;29;20493;-66
2023/10/20 06:12:00;;;;;;;10.17;2.90;;;;;;;1.60;100.00;101864.81;4898705;29;20044;-65
2023/10/20 06:14:26;;;;;;;6.83;2.70;;;;;;;1.81;100.00;101892.63;4898572;29;20489;-65
2023/10/20 06:16:52;;;;;;;3.93;2.70;;;;;;;1.87;100.00;101908.06;4897186;29;20304;-65
2023/10/20 06:19:19;;;;;;;8.80;2.70;;;;;;;1.49;100.00;101834.72;4898617;29;20280;-65
2023/10/20 06:21:45;;;;;;;4.83;3.13;;;;;;;1.84;100.00;101901.19;4898309;29;20368;-64
2023/10/20 06:24:12;;;;;;;9.10;3.23;;;;;;;1.78;100.00;101919.03;4898302;29;20280;-65
2023/10/20 06:26:38;;;;;;;5.57;2.43;;;;;;;1.17;100.00;101828.47;4898461;29;20304;-66
2023/10/20 06:29:23;;;;;;;10.87;2.30;;;;;;;1.55;100.00;101907.06;4896920;29;20296;-66
2023/10/20 06:31:58;;;;;;;10.63;3.23;;;;;;;1.52;100.00;101904.59;4898254;29;20315;-66
2023/10/20 06:34:24;;;;;;;3.77;2.20;;;;;;;1.53;100.00;101896.66;4898244;29;20280;-65
2023/10/20 06:37:06;;;;;;;4.63;1.90;;;;;;;1.62;100.00;101910.22;4898326;29;20277;-65
2023/10/20 06:39:32;;;;;;;4.77;3.70;;;;;;;1.52;100.00;101891.47;4898671;29;20872;-64
2023/10/20 06:41:57;;;;;;;6.93;2.23;;;;;;;1.40;100.00;101887.66;4898014;29;20348;-67
2023/10/20 06:44:23;;;;;;;5.70;3.00;;;;;;;1.41;100.00;101896.38;4898324;29;20051;-65
2023/10/20 06:46:48;;;;;;;6.17;2.00;;;;;;;1.51;100.00;101903.75;4897769;29;20461;-63
2023/10/20 06:49:18;;;;;;;7.20;2.37;;;;;;;1.68;100.00;101915.16;4898120;29;20504;-64
2023/10/20 06:51:46;;;;;;;8.33;2.60;;;;;;;1.66;100.00;101917.88;4896208;29;20060;-65
2023/10/20 06:54:12;;;;;;;8.33;2.43;;;;;;;1.59;100.00;101897.25;4896473;29;20285;-67
2023/10/20 06:56:38;;;;;;;8.77;3.20;;;;;;;1.74;100.00;101914.88;4897774;29;20299;-65
2023/10/20 06:59:03;;;;;;;6.70;2.73;;;;;;;1.44;100.00;101862.97;4897690;29;20606;-67
2023/10/20 07:01:32;;;;;;;8.37;3.30;;;;;;;1.67;100.00;101900.34;4897672;29;20044;-66
2023/10/20 07:03:58;;;;;;;5.85;2.47;;;;;;;1.38;100.00;101875.53;4897672;29;20529;-66
2023/10/20 07:06:24;;;;;;;8.77;3.20;;;;;;;1.55;100.00;101910.53;4897389;29;20145;-66
2023/10/20 07:08:50;;;;;;;7.20;2.47;;;;;;;1.54;100.00;101905.38;4897374;29;20040;-67
2023/10/20 07:11:16;;;;;;;8.37;2.87;;;;;;;1.68;100.00;101910.75;4897733;29;20047;-66
2023/10/20 07:13:45;;;;;;;7.70;3.23;;;;;;;1.92;100.00;101919.19;4897749;29;20308;-68
2023/10/20 07:16:12;;;;;;;8.37;3.57;;;;;;;1.93;100.00;101894.59;4897299;29;20277;-67
2023/10/20 07:18:38;;;;;;;7.97;3.33;;;;;;;2.12;100.00;101926.88;4898985;29;20352;-67
2023/10/20 07:21:04;;;;;;;6.90;3.50;;;;;;;2.22;100.00;101936.91;4900353;29;20277;-66
2023/10/20 07:23:29;;;;;;;9.73;4.10;;;;;;;2.26;100.00;101941.06;4901811;29;20645;-66
2023/10/20 07:25:55;;;;;;;9.70;3.93;;;;;;;2.16;100.00;101907.41;4903139;29;20527;-67
2023/10/20 07:28:21;;;;;;;7.27;3.73;;;;;;;2.31;100.00;101918.00;4898639;29;20126;-66
2023/10/20 07:30:47;;;;;;;7.77;2.87;;;;;;;2.51;100.00;101935.38;4897271;29;20037;-67
2023/10/20 07:33:12;;;;;;;6.17;2.63;;;;;;;2.56;100.00;101947.34;4897176;29;20364;-68
2023/10/20 07:35:38;;;;;;;9.23;3.07;;;;;;;2.56;100.00;101926.28;4895998;29;20413;-66
2023/10/20 07:38:04;;;;;;;6.90;3.33;;;;;;;2.62;100.00;101951.44;4897521;29;20119;-66
2023/10/20 07:40:34;;;;;;;4.93;2.53;;;;;;;2.52;100.00;101935.28;4897185;29;20811;-67
2023/10/20 07:43:02;;;;;;;9.40;2.40;;;;;;;2.21;100.00;101904.53;4896983;29;20409;-66
2023/10/20 07:45:28;;;;;;;10.93;4.93;;;;;;;2.11;100.00;101913.84;4896769;29;20332;-66
2023/10/20 07:47:55;;;;;;;6.10;2.40;;;;;;;2.02;100.00;101909.88;4897053;29;20084;-64
2023/10/20 07:50:21;;;;;;;4.10;2.23;;;;;;;2.16;100.00;101917.91;4896705;29;20090;-67
2023/10/20 07:52:47;;;;;;;5.17;2.90;;;;;;;2.18;100.00;101918.69;4896421;29;20320;-67
2023/10/20 07:55:14;;;;;;;3.53;2.07;;;;;;;2.25;100.00;101921.81;4897045;29;20803;-65
2023/10/20 07:57:40;;;;;;;7.73;3.00;;;;;;;2.44;100.00;101943.59;4897675;29;20115;-65
2023/10/20 08:00:06;;;;;;;9.07;3.00;;;;;;;2.53;100.00;101936.97;4897461;29;20364;-67
2023/10/20 08:02:31;;;;;;;13.47;4.17;;;;;;;2.46;100.00;101914.59;4897834;29;20115;-65
2023/10/20 08:04:57;;;;;;;3.90;2.33;;;;;;;2.69;100.00;101935.25;4903446;29;20388;-66
2023/10/20 08:07:24;;;;;;;9.27;3.07;;;;;;;2.72;100.00;101948.22;4903617;29;20138;-67
2023/10/20 08:09:49;;;;;;;7.20;3.43;;;;;;;2.60;100.00;101917.34;4904390;29;20036;-68
2023/10/20 08:12:15;;;;;;;10.90;3.70;;;;;;;2.73;100.00;101928.88;4903522;29;20288;-70
2023/10/20 08:14:40;;;;;;;5.63;2.60;;;;;;;2.60;100.00;101917.34;4903663;29;20047;-65
2023/10/20 08:17:07;;;;;;;5.53;2.60;;;;;;;2.65;100.00;101925.81;4902936;29;20123;-67
2023/10/20 08:19:33;;;;;;;7.60;2.67;;;;;;;2.51;100.00;101917.81;4902881;29;20041;-67
2023/10/20 08:21:59;;;;;;;5.97;2.87;;;;;;;2.63;100.00;101940.00;4902504;29;20275;-67
2023/10/20 08:24:25;;;;;;;6.17;2.87;;;;;;;2.57;100.00;101917.47;4902938;29;20406;-66
2023/10/20 08:26:51;;;;;;;5.13;2.93;;;;;;;2.79;100.00;101943.47;4902520;29;20041;-66
2023/10/20 08:29:17;;;;;;;5.47;2.77;;;;;;;2.79;100.00;101925.06;4902338;29;20803;-66
2023/10/20 08:31:42;;;;;;;4.33;2.20;;;;;;;2.99;100.00;101923.97;4902402;29;20127;-64
2023/10/20 08:34:09;;;;;;;8.73;2.47;;;;;;;2.86;100.00;101879.03;4902836;29;20127;-65
2023/10/20 08:36:35;;;;;;;9.50;3.50;;;;;;;3.28;100.00;101957.41;4902847;29;20136;-67
2023/10/20 08:39:06;;;;;;;4.60;1.80;;;;;;;3.20;100.00;101951.72;4903009;29;20277;-65
2023/10/20 08:41:33;;;;;;;6.20;2.80;;;;;;;2.97;100.00;101902.16;4904314;29;20747;-67
2023/10/20 08:43:59;;;;;;;6.13;2.17;;;;;;;3.39;100.00;101952.34;4903605;29;20272;-65
2023/10/20 08:46:25;;;;;;;7.00;3.27;;;;;;;3.46;100.00;101944.94;4903570;29;20652;-65
2023/10/20 08:48:52;;;;;;;5.17;2.00;;;;;;;3.33;95.47;101913.22;4902623;29;20273;-66
2023/10/20 08:51:19;;;;;;;3.03;1.93;;;;;;;3.28;94.84;101946.88;4901389;29;20395;-67
2023/10/20 08:53:45;;;;;;;4.13;2.60;;;;;;;3.00;95.55;101925.66;4902759;29;20300;-66
2023/10/20 08:56:12;;;;;;;6.47;2.07;;;;;;;2.95;96.70;101935.59;4902644;29;20352;-66
2023/10/20 08:58:38;;;;;;;3.57;1.90;;;;;;;3.01;91.82;101949.25;4902878;29;20673;-66
2023/10/20 09:01:05;;;;;;;5.57;1.80;;;;;;;3.09;90.28;101948.81;4902731;29;20388;-64
2023/10/20 09:03:43;;;;;;;4.20;1.87;;;;;;;3.05;88.60;101913.09;4904356;29;20044;-67
2023/10/20 09:06:12;;;;;;;6.33;2.13;;;;;;;3.17;84.55;101917.66;4903626;29;20304;-66
2023/10/20 09:08:38;;;;;;;3.80;2.40;;;;;;;3.38;81.22;101942.75;4904225;29;20367;-66
2023/10/20 09:11:11;;;;;;;5.87;1.80;;;;;;;3.27;80.36;101932.00;4903499;29;20287;-65
2023/10/20 09:13:39;;;;;;;2.60;1.47;;;;;;;3.16;81.09;101913.31;4902631;29;20744;-66
2023/10/20 09:16:10;;;;;;;6.35;3.03;;;;;;;3.44;82.27;101962.63;4899738;29;20281;-66
2023/10/20 09:18:47;;;;;;;9.60;2.83;;;;;;;3.11;81.63;101918.00;4899937;29;20119;-65
2023/10/20 09:21:14;;;;;;;5.27;2.03;;;;;;;3.33;80.02;101950.09;4899762;29;20269;-66
2023/10/20 09:23:52;;;;;;;3.63;1.80;;;;;;;3.29;79.36;101942.44;4899931;29;20282;-65
2023/10/20 09:26:17;;;;;;;3.97;1.80;;;;;;;2.98;82.41;101915.22;4898196;29;20296;-66
2023/10/20 09:28:48;;;;;;;5.13;1.73;;;;;;;3.12;83.77;101946.00;4898562;29;20328;-66
2023/10/20 09:31:18;;;;;;;4.67;2.03;;;;;;;2.97;84.91;101926.69;4899892;29;20052;-65
2023/10/20 09:33:44;;;;;;;3.73;1.57;;;;;;;2.90;84.90;101908.69;4898309;29;20265;-66
2023/10/20 09:36:13;;;;;;;6.90;2.60;;;;;;;3.24;84.48;101950.59;4899259;29;20339;-67
2023/10/20 09:38:39;;;;;;;4.13;2.23;;;;;;;3.02;83.09;101887.78;4897943;29;20398;-66
2023/10/20 09:41:13;;;;;;;3.43;1.57;;;;;;;3.22;81.75;101931.41;4899074;29;20375;-67
2023/10/20 09:43:48;;;;;;;7.77;2.10;;;;;;;3.39;82.65;101947.09;4898273;29;20514;-66
2023/10/20 09:46:32;;;;;;;2.37;1.60;;;;;;;3.16;81.35;101923.84;4897903;29;20847;-65
2023/10/20 09:49:00;;;;;;;8.23;2.13;;;;;;;2.96;81.43;101929.41;4899117;29;20309;-65
2023/10/20 09:51:27;;;;;;;4.93;1.85;;;;;;;2.55;81.20;101877.25;4898865;29;20288;-66
2023/10/20 09:53:54;;;;;;;3.00;1.70;;;;;;;2.73;81.40;101918.34;4899166;29;20087;-66
2023/10/20 09:56:21;;;;;;;3.53;2.07;;;;;;;3.05;80.81;101940.25;4899000;29;20289;-65
2023/10/20 09:58:47;;;;;;;4.87;2.37;;;;;;;2.79;79.88;101869.81;4898879;29;20305;-66
2023/10/20 10:01:15;;;;;;;3.83;1.77;;;;;;;3.31;81.27;101945.84;4899061;29;20709;-67
2023/10/20 10:03:47;;;;;;;9.40;2.23;;;;;;;3.28;79.99;101941.59;4898813;29;20336;-66
2023/10/20 10:06:15;;;;;;;3.97;2.43;;;;;;;3.30;78.98;101923.06;4899078;29;20807;-65
2023/10/20 10:08:46;;;;;;;6.25;2.92;;;;;;;3.46;76.58;101938.84;4899154;29;20756;-66
2023/10/20 10:11:26;;;;;;;4.77;2.17;;;;;;;3.53;76.57;101935.78;4898954;29;20476;-65
2023/10/20 10:13:54;;;;;;;3.57;2.07;;;;;;;3.52;74.59;101934.09;4899364;29;20324;-66
2023/10/20 10:16:21;;;;;;;4.97;1.50;;;;;;;3.55;72.81;101933.06;4901647;29;20807;-65
2023/10/20 10:18:47;;;;;;;2.27;1.67;;;;;;;3.57;71.71;101939.09;4912562;29;20289;-66
2023/10/20 10:21:28;;;;;;;3.47;2.10;;;;;;;3.46;73.12;101934.41;4920327;29;20260;-66
2023/10/20 10:24:15;;;;;;;7.40;2.10;;;;;;;3.61;75.01;101943.22;4921983;29;20277;-66
2023/10/20 10:26:53;;;;;;;3.23;1.63;;;;;;;3.37;75.21;101898.94;4919893;29;20348;-65
2023/10/20 10:30:05;;;;;;;4.90;1.80;;;;;;;3.52;73.88;101936.72;4911766;29;20821;-68
2023/10/20 10:32:41;;;;;;;4.40;1.63;;;;;;;3.45;73.92;101934.50;4898507;29;20049;-67
2023/10/20 10:35:08;;;;;;;4.53;1.77;;;;;;;3.38;75.67;101942.75;4898298;29;20269;-65
2023/10/20 10:37:36;;;;;;;2.80;1.70;;;;;;;3.14;76.89;101902.03;4898046;29;20296;-65
2023/10/20 10:40:14;;;;;;;3.53;1.48;;;;;;;3.21;78.91;101939.41;4898470;29;20276;-67
2023/10/20 10:42:45;;;;;;;3.23;1.63;;;;;;;2.88;81.79;101927.16;4901746;29;20048;-65
2023/10/20 10:45:14;;;;;;;7.93;1.77;;;;;;;2.74;84.46;101938.47;4900901;29;20387;-65
2023/10/20 10:47:39;;;;;;;;;;;;;;;2.67;85.36;101938.88;4900886;29;20292;-66
2023/10/20 10:50:07;;;;;;;4.67;2.60;;;;;;;2.16;88.31;101889.00;4900791;29;19919;-68
2023/10/20 10:52:34;;;;;;;3.27;1.90;;;;;;;2.44;89.83;101937.47;4898942;29;20041;-65
2023/10/20 10:54:59;;;;;;;4.10;1.80;;;;;;;2.60;89.41;101937.50;4900945;29;20292;-67
2023/10/20 10:57:25;;;;;;;4.67;2.03;;;;;;;2.99;89.31;101939.75;4901918;29;20293;-66
2023/10/20 10:59:50;;;;;;;4.37;2.37;;;;;;;2.92;86.97;101873.47;4899268;29;20066;-66
2023/10/20 11:02:16;;;;;;;5.13;2.00;;;;;;;2.89;86.37;101831.53;4898046;29;20041;-66
2023/10/20 11:04:42;;;;;;;5.33;2.33;;;;;;;3.24;87.13;101892.69;4899190;29;20036;-66
2023/10/20 11:07:08;;;;;;;2.80;1.63;;;;;;;3.22;87.31;101923.53;4897799;29;20051;-66
2023/10/20 11:09:35;;;;;;;6.17;1.93;;;;;;;3.26;88.04;101932.94;4897753;29;20277;-66
2023/10/20 11:12:01;;;;;;;6.10;1.80;;;;;;;3.19;86.68;101918.44;4896139;29;20045;-66
2023/10/20 11:14:26;;;;;;;3.27;1.87;;;;;;;3.15;87.23;101922.16;4897590;29;20304;-65
2023/10/20 11:16:52;;;;;;;3.63;2.07;;;;;;;3.02;87.59;101902.72;4897525;29;20337;-65
2023/10/20 11:19:18;;;;;;;5.20;2.20;;;;;;;2.91;87.13;101866.50;4897248;29;20042;-66
2023/10/20 11:21:43;;;;;;;4.63;2.03;;;;;;;3.31;87.04;101920.34;4897241;29;20044;-66
2023/10/20 11:24:09;;;;;;;6.30;2.53;;;;;;;3.26;85.36;101903.97;4897280;29;20441;-66
2023/10/20 11:26:35;;;;;;;4.90;1.63;;;;;;;3.03;81.76;101857.91;4880685;29;20410;-66
2023/10/20 11:29:01;;;;;;;5.50;1.80;;;;;;;3.28;83.21;101894.22;4899579;29;20500;-67
2023/10/20 11:31:27;;;;;;;3.57;1.80;;;;;;;3.27;78.68;101924.09;4903818;29;20725;-66
2023/10/20 11:33:53;;;;;;;5.87;1.83;;;;;;;3.10;77.79;101926.81;4902751;29;20385;-66
2023/10/20 11:36:18;;;;;;;6.10;2.73;;;;;;;2.95;78.38;101880.34;4910167;29;20560;-66
2023/10/20 11:38:44;;;;;;;4.67;2.00;;;;;;;3.11;77.42;101875.88;4904609;29;20035;-65
2023/10/20 11:41:10;;;;;;;6.70;2.20;;;;;;;3.59;73.21;101918.78;4906852;29;20035;-66
2023/10/20 11:43:37;;;;;;;4.93;1.87;;;;;;;3.86;68.74;101903.97;4876690;29;20032;-67
2023/10/20 11:46:05;;;;;;;4.40;1.87;;;;;;;3.85;69.27;101923.34;4906109;29;20300;-67
2023/10/20 11:48:30;;;;;;;5.20;1.90;;;;;;;3.79;70.45;101921.09;4906348;29;20774;-69
2023/10/20 11:50:57;;;;;;;2.83;1.40;;;;;;;3.60;70.04;101920.47;4892213;29;20292;-65
2023/10/20 11:53:22;;;;;;;2.77;1.93;;;;;;;3.52;71.57;101923.56;4907709;29;20040;-65
2023/10/20 11:55:48;;;;;;;5.07;1.90;;;;;;;3.53;71.98;101938.41;4904734;29;20657;-66
2023/10/20 11:58:13;;;;;;;2.53;1.80;;;;;;;3.48;69.48;101942.25;4903274;29;20075;-65
2023/10/20 12:00:41;;;;;;;2.27;1.47;;;;;;;3.31;67.83;101907.19;4907995;29;20051;-67
2023/10/20 12:03:08;;;;;;;1.90;1.63;;;;;;;3.13;66.23;101881.06;4899219;29;20083;-66